createdAt,value
2022-08-02T00:00:55.592Z,4.47
2022-08-02T00:03:23.722Z,3.50
2022-08-02T00:05:53.573Z,6.78
2022-08-02T00:08:21.372Z,8.32
2022-08-02T00:10:48.043Z,4.90
2022-08-02T00:13:14.589Z,5.18
2022-08-02T00:15:41.319Z,4.20
2022-08-02T00:18:07.986Z,4.07
2022-08-02T00:20:34.572Z,5.40
2022-08-02T00:23:01.220Z,5.22
2022-08-02T00:25:27.819Z,6.03
2022-08-02T00:27:54.520Z,3.78
2022-08-02T00:30:21.122Z,5.75
2022-08-02T00:32:47.768Z,4.70
2022-08-02T00:35:14.441Z,6.47
2022-08-02T00:37:41.750Z,5.45
2022-08-02T00:40:09.398Z,4.40
2022-08-02T00:42:35.942Z,5.65
2022-08-02T00:45:02.606Z,4.30
2022-08-02T00:47:29.164Z,4.65
2022-08-02T00:49:55.799Z,8.30
2022-08-02T00:52:24.419Z,3.15
2022-08-02T00:54:51.065Z,5.10
2022-08-02T00:57:17.659Z,4.28
2022-08-02T00:59:44.400Z,4.25
2022-08-02T01:02:12.468Z,4.93
2022-08-02T01:04:39.299Z,2.70
2022-08-02T01:07:12.577Z,6.18
2022-08-02T01:09:43.565Z,4.47
2022-08-02T01:12:10.885Z,5.70
2022-08-02T01:14:38.137Z,4.63
2022-08-02T01:17:31.183Z,5.50
2022-08-02T01:20:04.997Z,4.90
2022-08-02T01:25:28.195Z,3.03
2022-08-02T01:28:00.547Z,2.83
2022-08-02T01:30:28.069Z,7.35
2022-08-02T01:32:58.422Z,4.35
2022-08-02T01:35:28.472Z,5.38
2022-08-02T01:38:19.074Z,4.57
2022-08-02T01:40:47.131Z,4.85
2022-08-02T01:43:14.374Z,6.13
2022-08-02T01:45:42.232Z,5.20
2022-08-02T01:48:09.843Z,5.68
2022-08-02T01:50:39.860Z,8.73
2022-08-02T01:53:07.672Z,8.30
2022-08-02T01:55:57.465Z,7.40
2022-08-02T01:58:25.058Z,7.32
2022-08-02T02:00:52.561Z,7.13
2022-08-02T02:03:23.045Z,5.88
2022-08-02T02:05:50.178Z,6.07
2022-08-02T02:08:27.164Z,5.32
2022-08-02T02:10:55.053Z,3.88
2022-08-02T02:13:33.233Z,4.85
2022-08-02T02:16:02.946Z,4.35
2022-08-02T02:18:30.893Z,4.88
2022-08-02T02:20:58.226Z,5.00
2022-08-02T02:23:26.042Z,2.70
2022-08-02T02:25:53.379Z,3.22
2022-08-02T02:28:30.103Z,3.45
2022-08-02T02:31:26.238Z,3.05
2022-08-02T02:33:57.085Z,2.92
2022-08-02T02:36:23.785Z,5.07
2022-08-02T02:38:51.757Z,4.03
2022-08-02T02:41:19.339Z,7.20
2022-08-02T02:43:46.837Z,5.15
2022-08-02T02:46:13.727Z,4.65
2022-08-02T02:48:42.962Z,4.32
2022-08-02T02:51:14.282Z,6.32
2022-08-02T02:54:31.945Z,5.15
2022-08-02T02:56:29.265Z,4.40
2022-08-02T02:58:58.231Z,5.45
2022-08-02T03:01:56.264Z,4.60
2022-08-02T03:04:14.523Z,6.18
2022-08-02T03:06:42.031Z,3.80
2022-08-02T03:09:09.674Z,5.40
2022-08-02T03:11:38.479Z,4.50
2022-08-02T03:14:05.793Z,7.07
2022-08-02T03:16:32.529Z,3.90
2022-08-02T03:19:02.016Z,2.13
2022-08-02T03:21:31.027Z,3.53
2022-08-02T03:24:00.035Z,3.75
2022-08-02T03:26:26.583Z,3.00
2022-08-02T03:28:53.158Z,5.05
2022-08-02T03:31:19.862Z,3.50
2022-08-02T03:33:46.813Z,4.78
2022-08-02T03:36:15.551Z,4.25
2022-08-02T03:38:42.730Z,3.35
2022-08-02T03:41:10.969Z,3.38
2022-08-02T03:43:38.812Z,2.85
2022-08-02T03:46:07.651Z,3.50
2022-08-02T03:48:35.331Z,2.00
2022-08-02T03:51:02.210Z,2.78
2022-08-02T03:53:29.125Z,3.20
2022-08-02T03:55:56.161Z,4.35
2022-08-02T03:58:23.495Z,4.95
2022-08-02T04:00:50.396Z,3.40
2022-08-02T04:03:19.961Z,6.53
2022-08-02T04:06:03.153Z,5.25
2022-08-02T04:08:36.872Z,4.78
2022-08-02T04:11:23.380Z,7.00
2022-08-02T04:13:52.214Z,10.38
2022-08-02T04:16:31.185Z,8.77
2022-08-02T04:19:02.271Z,11.13
2022-08-02T04:21:49.262Z,8.70
2022-08-02T04:24:19.587Z,8.20
2022-08-02T04:26:48.145Z,6.93
2022-08-02T04:29:17.982Z,11.82
2022-08-02T04:31:44.798Z,7.47
2022-08-02T04:34:15.029Z,5.13
2022-08-02T04:36:43.117Z,7.22
2022-08-02T04:39:10.029Z,4.68
2022-08-02T04:41:46.396Z,7.57
2022-08-02T04:44:13.393Z,8.00
2022-08-02T04:46:40.719Z,3.47
2022-08-02T04:49:07.670Z,7.05
2022-08-02T04:51:38.863Z,7.93
2022-08-02T04:54:09.395Z,6.70
2022-08-02T04:56:38.097Z,10.73
2022-08-02T04:59:04.802Z,7.25
2022-08-02T05:01:32.245Z,7.55
2022-08-02T05:03:59.218Z,4.70
2022-08-02T05:06:25.747Z,3.92
2022-08-02T05:08:53.492Z,5.78
2022-08-02T05:11:21.122Z,6.90
2022-08-02T05:13:58.889Z,4.07
2022-08-02T05:16:31.443Z,3.38
2022-08-02T05:18:59.627Z,4.30
2022-08-02T05:21:26.208Z,7.70
2022-08-02T05:23:52.918Z,6.45
2022-08-02T05:26:19.602Z,7.88
2022-08-02T05:28:46.136Z,6.55
2022-08-02T05:31:13.344Z,8.45
2022-08-02T05:33:40.637Z,11.77
2022-08-02T05:36:09.439Z,9.35
2022-08-02T05:38:38.610Z,8.82
2022-08-02T05:41:06.420Z,9.73
2022-08-02T05:43:33.118Z,9.15
2022-08-02T05:45:59.775Z,8.80
2022-08-02T05:48:31.183Z,14.57
2022-08-02T05:51:02.852Z,9.77
2022-08-02T05:53:46.065Z,10.52
2022-08-02T05:56:20.208Z,7.50
2022-08-02T05:58:53.586Z,11.07
2022-08-02T06:01:40.736Z,12.00
2022-08-02T06:04:08.770Z,14.65
2022-08-02T06:06:35.998Z,38.35
2022-08-02T06:09:08.827Z,14.13
2022-08-02T06:11:42.869Z,19.27
2022-08-02T06:14:31.022Z,12.27
2022-08-02T06:16:57.828Z,14.82
2022-08-02T06:19:27.940Z,12.75
2022-08-02T06:22:34.022Z,11.13
2022-08-02T06:24:45.057Z,9.10
2022-08-02T06:27:14.988Z,9.25
2022-08-02T06:29:43.211Z,8.00
2022-08-02T06:32:10.695Z,12.50
2022-08-02T06:34:40.551Z,7.10
2022-08-02T06:37:13.101Z,7.07
2022-08-02T06:39:44.259Z,8.60
2022-08-02T06:42:15.832Z,7.88
2022-08-02T06:44:48.561Z,8.05
2022-08-02T06:47:17.647Z,6.78
2022-08-02T06:49:51.751Z,12.52
2022-08-02T06:52:26.864Z,6.10
2022-08-02T06:54:54.959Z,5.18
2022-08-02T06:57:21.513Z,5.13
2022-08-02T06:59:48.121Z,6.28
2022-08-02T07:02:14.714Z,7.00
2022-08-02T07:04:41.258Z,8.55
2022-08-02T07:07:07.908Z,5.45
2022-08-02T07:09:34.499Z,3.20
2022-08-02T07:12:01.115Z,6.05
2022-08-02T07:14:27.772Z,8.82
2022-08-02T07:16:54.405Z,5.57
2022-08-02T07:19:20.976Z,8.82
2022-08-02T07:21:56.667Z,6.00
2022-08-02T07:24:26.098Z,7.53
2022-08-02T07:27:10.339Z,6.97
2022-08-02T07:29:45.047Z,5.65
2022-08-02T07:32:14.512Z,7.63
2022-08-02T07:34:42.506Z,5.15
2022-08-02T07:37:23.503Z,4.50
2022-08-02T07:39:56.409Z,5.55
2022-08-02T07:42:22.982Z,7.10
2022-08-02T07:44:49.807Z,6.47
2022-08-02T07:47:16.527Z,9.68
2022-08-02T07:49:44.115Z,6.85
2022-08-02T07:52:10.805Z,22.15
2022-08-02T07:54:37.653Z,9.80
2022-08-02T07:57:04.352Z,6.35
2022-08-02T07:59:30.894Z,5.30
2022-08-02T08:01:57.527Z,4.80
2022-08-02T08:04:24.128Z,3.92
2022-08-02T08:06:52.723Z,6.00
2022-08-02T08:09:20.056Z,12.48
2022-08-02T08:11:47.121Z,3.72
2022-08-02T08:14:16.814Z,5.45
2022-08-02T08:16:44.032Z,6.85
2022-08-02T08:19:10.784Z,4.32
2022-08-02T08:21:37.401Z,3.97
2022-08-02T08:24:04.825Z,6.00
2022-08-02T08:26:31.698Z,4.57
2022-08-02T08:28:58.330Z,5.43
2022-08-02T08:31:24.925Z,4.25
2022-08-02T08:33:51.605Z,4.10
2022-08-02T08:36:18.269Z,4.60
2022-08-02T08:38:45.000Z,6.03
2022-08-02T08:41:11.663Z,6.38
2022-08-02T08:43:38.475Z,3.38
2022-08-02T08:46:07.740Z,3.72
2022-08-02T08:48:38.103Z,1.98
2022-08-02T08:51:07.688Z,4.90
2022-08-02T08:53:39.354Z,4.13
2022-08-02T08:56:07.999Z,5.32
2022-08-02T08:58:34.804Z,3.88
2022-08-02T09:01:01.568Z,4.00
2022-08-02T09:03:28.304Z,3.22
2022-08-02T09:06:00.962Z,4.97
2022-08-02T09:08:28.320Z,5.03
2022-08-02T09:10:55.316Z,2.83
2022-08-02T09:13:31.235Z,3.22
2022-08-02T09:16:12.614Z,16.00
2022-08-02T09:18:44.086Z,10.70
2022-08-02T09:21:10.765Z,15.75
2022-08-02T09:23:37.302Z,26.65
2022-08-02T09:26:07.679Z,35.50
2022-08-02T09:28:35.818Z,38.38
2022-08-02T09:31:12.592Z,43.83
2022-08-02T09:33:40.330Z,58.97
2022-08-02T09:36:08.647Z,51.05
2022-08-02T09:38:36.110Z,42.75
2022-08-02T09:41:06.190Z,49.38
2022-08-02T09:43:51.900Z,39.40
2022-08-02T09:46:30.677Z,39.20
2022-08-02T09:48:58.391Z,41.65
2022-08-02T09:51:24.987Z,32.17
2022-08-02T09:54:06.041Z,37.78
2022-08-02T09:56:45.346Z,32.70
2022-08-02T09:59:13.028Z,29.75
2022-08-02T10:01:40.391Z,41.15
2022-08-02T10:04:22.497Z,31.55
2022-08-02T10:06:50.421Z,27.00
2022-08-02T10:09:17.374Z,27.23
2022-08-02T10:11:44.227Z,24.30
2022-08-02T10:14:11.057Z,21.17
2022-08-02T10:16:39.026Z,21.13
2022-08-02T10:19:05.661Z,24.75
2022-08-02T10:21:33.771Z,17.80
2022-08-02T10:24:05.841Z,19.73
2022-08-02T10:26:32.578Z,18.42
2022-08-02T10:28:59.262Z,19.48
2022-08-02T10:31:27.785Z,18.85
2022-08-02T10:33:55.837Z,20.85
2022-08-02T10:36:23.759Z,15.60
2022-08-02T10:38:50.696Z,18.20
2022-08-02T10:41:37.159Z,15.35
2022-08-02T10:44:04.215Z,17.70
2022-08-02T10:46:35.657Z,18.63
2022-08-02T10:49:38.727Z,12.70
2022-08-02T10:52:02.673Z,14.80
2022-08-02T10:54:36.462Z,13.00
2022-08-02T10:57:03.756Z,10.93
2022-08-02T10:59:36.296Z,15.18
2022-08-02T11:02:05.665Z,8.45
2022-08-02T11:04:41.437Z,6.70
2022-08-02T11:07:14.184Z,13.63
2022-08-02T11:09:41.941Z,12.65
2022-08-02T11:12:13.581Z,9.57
2022-08-02T11:14:41.912Z,7.57
2022-08-02T11:17:18.143Z,11.40
2022-08-02T11:20:05.880Z,10.48
2022-08-02T11:22:32.456Z,8.80
2022-08-02T11:25:18.983Z,12.95
2022-08-02T11:27:45.646Z,7.15
2022-08-02T11:30:13.192Z,6.90
2022-08-02T11:32:39.756Z,7.43
2022-08-02T11:35:06.687Z,8.52
2022-08-02T11:37:37.196Z,9.32
2022-08-02T11:40:07.980Z,7.88
2022-08-02T11:42:37.975Z,7.30
2022-08-02T11:45:05.529Z,6.13
2022-08-02T11:47:32.280Z,5.35
2022-08-02T11:50:08.741Z,4.70
2022-08-02T11:52:35.858Z,4.05
2022-08-02T11:55:02.751Z,5.32
2022-08-02T11:57:29.335Z,5.28
2022-08-02T12:00:17.324Z,4.65
2022-08-02T12:02:48.497Z,4.70
2022-08-02T12:05:19.644Z,6.28
2022-08-02T12:07:46.860Z,5.25
2022-08-02T12:10:21.032Z,6.05
2022-08-02T12:12:51.899Z,9.20
2022-08-02T12:15:30.590Z,11.63
2022-08-02T12:18:16.328Z,10.05
2022-08-02T12:20:43.224Z,4.13
2022-08-02T12:23:09.985Z,7.30
2022-08-02T12:25:36.560Z,4.25
2022-08-02T12:28:22.202Z,6.20
2022-08-02T12:30:49.346Z,3.40
2022-08-02T12:33:15.915Z,4.82
2022-08-02T12:35:42.546Z,2.72
2022-08-02T12:38:12.242Z,2.63
2022-08-02T12:40:39.079Z,5.00
2022-08-02T12:43:06.509Z,4.90
2022-08-02T12:45:48.528Z,6.30
2022-08-02T12:48:15.918Z,4.28
2022-08-02T12:50:42.566Z,2.03
2022-08-02T12:53:18.197Z,2.78
2022-08-02T12:55:59.758Z,2.95
2022-08-02T12:58:30.467Z,3.70
2022-08-02T13:00:59.053Z,16.30
2022-08-02T13:04:09.664Z,4.55
2022-08-02T13:06:40.935Z,3.83
2022-08-02T13:09:01.394Z,4.68
2022-08-02T13:11:28.763Z,3.13
2022-08-02T13:13:56.280Z,4.10
2022-08-02T13:16:30.537Z,3.45
2022-08-02T13:18:59.384Z,3.85
2022-08-02T13:21:40.049Z,1.85
2022-08-02T13:24:33.216Z,5.70
2022-08-02T13:26:58.528Z,2.15
2022-08-02T13:29:26.156Z,3.53
2022-08-02T13:31:53.129Z,3.40
2022-08-02T13:34:20.881Z,1.70
2022-08-02T13:36:48.316Z,2.75
2022-08-02T13:39:15.582Z,2.10
2022-08-02T13:41:44.162Z,2.42
2022-08-02T13:44:11.846Z,3.63
2022-08-02T13:46:45.499Z,3.30
2022-08-02T13:49:19.005Z,2.85
2022-08-02T13:51:47.903Z,1.92
2022-08-02T13:54:15.899Z,2.38
2022-08-02T13:56:43.591Z,3.58
2022-08-02T13:59:54.987Z,2.35
2022-08-02T14:01:59.834Z,2.65
2022-08-02T14:04:27.113Z,1.63
2022-08-02T14:06:54.707Z,2.28
2022-08-02T14:09:26.001Z,6.57
2022-08-02T14:11:52.811Z,3.15
2022-08-02T14:14:20.686Z,2.78
2022-08-02T14:16:47.774Z,2.03
2022-08-02T14:19:16.638Z,1.10
2022-08-02T14:21:46.995Z,1.48
2022-08-02T14:24:16.344Z,2.45
2022-08-02T14:26:44.022Z,2.08
2022-08-02T14:29:12.968Z,4.32
2022-08-02T14:31:44.784Z,3.35
2022-08-02T14:34:13.723Z,3.13
2022-08-02T14:36:41.398Z,2.40
2022-08-02T14:39:09.762Z,3.08
2022-08-02T14:42:00.017Z,1.73
2022-08-02T14:44:24.950Z,2.83
2022-08-02T14:46:53.202Z,4.45
2022-08-02T14:49:24.755Z,5.05
2022-08-02T14:51:55.422Z,3.40
2022-08-02T14:54:26.830Z,2.50
2022-08-02T14:56:57.551Z,2.53
2022-08-02T14:59:26.947Z,3.63
2022-08-02T15:01:54.446Z,1.48
2022-08-02T15:04:21.871Z,1.95
2022-08-02T15:06:48.856Z,2.38
2022-08-02T15:09:16.174Z,2.25
2022-08-02T15:11:47.553Z,2.95
2022-08-02T15:14:23.338Z,2.60
2022-08-02T15:16:58.180Z,2.22
2022-08-02T15:19:54.597Z,2.88
2022-08-02T15:22:19.142Z,3.70
2022-08-02T15:24:47.798Z,4.40
2022-08-02T15:27:15.092Z,6.63
2022-08-02T15:29:45.434Z,6.13
2022-08-02T15:32:12.737Z,5.38
2022-08-02T15:34:40.202Z,3.97
2022-08-02T15:37:06.805Z,5.25
2022-08-02T15:39:33.500Z,8.82
2022-08-02T15:42:00.117Z,4.97
2022-08-02T15:44:28.959Z,1.85
2022-08-02T15:46:55.777Z,3.05
2022-08-02T15:49:27.706Z,3.33
2022-08-02T15:51:54.400Z,3.63
2022-08-02T15:54:21.058Z,5.40
2022-08-02T15:56:47.738Z,2.17
2022-08-02T15:59:14.638Z,2.60
2022-08-02T16:01:46.587Z,4.47
2022-08-02T16:04:14.011Z,6.55
2022-08-02T16:06:40.717Z,3.97
2022-08-02T16:09:07.308Z,4.80
2022-08-02T16:11:33.941Z,3.03
2022-08-02T16:14:00.504Z,4.22
2022-08-02T16:16:29.387Z,4.38
2022-08-02T16:18:56.386Z,3.22
2022-08-02T16:21:23.589Z,3.92
2022-08-02T16:23:59.093Z,4.65
2022-08-02T16:26:29.462Z,7.80
2022-08-02T16:28:58.442Z,4.85
2022-08-02T16:31:25.248Z,6.80
2022-08-02T16:33:56.493Z,3.83
2022-08-02T16:36:24.283Z,3.67
2022-08-02T16:38:50.870Z,7.68
2022-08-02T16:41:17.426Z,4.40
2022-08-02T16:43:44.050Z,5.40
2022-08-02T16:46:10.595Z,7.90
2022-08-02T16:48:37.363Z,7.97
2022-08-02T16:51:04.567Z,10.88
2022-08-02T16:53:37.005Z,10.73
2022-08-02T16:56:04.336Z,13.55
2022-08-02T16:58:30.940Z,16.67
2022-08-02T17:00:57.962Z,22.38
2022-08-02T17:03:24.607Z,18.88
2022-08-02T17:06:11.167Z,18.50
2022-08-02T17:08:54.394Z,16.50
2022-08-02T17:11:21.328Z,13.02
2022-08-02T17:13:50.994Z,14.85
2022-08-02T17:16:20.524Z,10.35
2022-08-02T17:18:53.986Z,12.05
2022-08-02T17:21:21.046Z,11.68
2022-08-02T17:24:05.521Z,11.35
2022-08-02T17:26:34.761Z,12.15
2022-08-02T17:29:15.621Z,7.63
2022-08-02T17:32:04.924Z,8.07
2022-08-02T17:34:35.542Z,8.52
2022-08-02T17:37:02.264Z,10.07
2022-08-02T17:39:34.334Z,10.35
2022-08-02T17:42:10.297Z,5.40
2022-08-02T17:44:42.099Z,3.97
2022-08-02T17:47:12.021Z,7.10
2022-08-02T17:49:43.956Z,6.78
2022-08-02T17:52:48.661Z,8.82
2022-08-02T17:54:58.128Z,7.78
2022-08-02T17:57:24.721Z,6.72
2022-08-02T18:00:11.685Z,4.30
2022-08-02T18:02:39.163Z,4.82
2022-08-02T18:05:11.799Z,10.13
2022-08-02T18:10:27.668Z,6.80
2022-08-02T18:12:56.185Z,4.28
2022-08-02T18:15:23.013Z,6.70
2022-08-02T18:17:50.373Z,8.30
2022-08-02T18:20:17.116Z,5.35
2022-08-02T18:22:44.958Z,2.92
2022-08-02T18:25:18.347Z,5.13
2022-08-02T18:27:58.650Z,6.40
2022-08-02T18:30:28.431Z,4.55
2022-08-02T18:33:54.273Z,5.10
2022-08-02T18:35:42.853Z,4.10
2022-08-02T18:38:11.885Z,5.68
2022-08-02T18:40:38.917Z,3.95
2022-08-02T18:43:07.626Z,5.78
2022-08-02T18:48:21.816Z,7.03
2022-08-02T18:50:48.509Z,3.55
2022-08-02T18:53:16.834Z,4.63
2022-08-02T18:56:04.278Z,4.13
2022-08-02T18:58:31.211Z,6.78
2022-08-02T19:00:57.892Z,5.60
2022-08-02T19:03:26.026Z,2.35
2022-08-02T19:05:53.970Z,6.07
2022-08-02T19:08:25.530Z,5.40
2022-08-02T19:10:53.380Z,7.05
2022-08-02T19:13:23.320Z,8.75
2022-08-02T19:15:50.139Z,3.88
2022-08-02T19:18:16.780Z,4.68
2022-08-02T19:20:48.028Z,2.85
2022-08-02T19:23:15.251Z,6.00
2022-08-02T19:25:54.543Z,3.13
2022-08-02T19:28:26.272Z,4.07
2022-08-02T19:30:56.109Z,4.88
2022-08-02T19:33:54.891Z,4.68
2022-08-02T19:36:10.006Z,2.53
2022-08-02T19:38:43.471Z,11.05
2022-08-02T19:41:15.386Z,3.42
2022-08-02T19:44:23.386Z,3.75
2022-08-02T19:46:31.330Z,6.53
2022-08-02T19:48:59.672Z,4.47
2022-08-02T19:51:49.476Z,3.90
2022-08-02T19:54:18.571Z,4.93
2022-08-02T19:56:47.434Z,7.80
2022-08-02T19:59:14.536Z,2.92
2022-08-02T20:01:44.956Z,3.83
2022-08-02T20:04:15.141Z,13.85
2022-08-02T20:06:50.694Z,6.20
2022-08-02T20:09:20.983Z,9.18
2022-08-02T20:11:54.546Z,5.90
2022-08-02T20:14:27.545Z,6.22
2022-08-02T20:16:55.455Z,6.28
2022-08-02T20:19:23.404Z,2.35
2022-08-02T20:21:54.315Z,4.40
2022-08-02T20:24:26.749Z,4.18
2022-08-02T20:26:53.570Z,2.75
2022-08-02T20:29:42.998Z,4.75
2022-08-02T20:32:12.027Z,3.10
2022-08-02T20:34:38.665Z,3.33
2022-08-02T20:37:59.844Z,6.93
2022-08-02T20:39:52.391Z,4.55
2022-08-02T20:42:23.127Z,2.97
2022-08-02T20:44:54.171Z,10.48
2022-08-02T20:47:27.624Z,4.93
2022-08-02T20:50:14.233Z,6.75
2022-08-02T20:52:42.366Z,5.80
2022-08-02T20:55:09.319Z,5.07
2022-08-02T20:57:59.910Z,6.55
2022-08-02T21:00:31.963Z,6.07
2022-08-02T21:03:00.376Z,9.52
2022-08-02T21:05:54.693Z,9.25
2022-08-02T21:08:14.876Z,5.45
2022-08-02T21:10:43.723Z,5.70
2022-08-02T21:16:04.420Z,3.63
2022-08-02T21:18:35.911Z,5.30
2022-08-02T21:21:07.087Z,4.55
2022-08-02T21:23:37.896Z,5.55
2022-08-02T21:26:06.629Z,9.00
2022-08-02T21:28:44.137Z,11.95
2022-08-02T21:31:15.595Z,3.78
2022-08-02T21:33:57.124Z,4.88
2022-08-02T21:36:30.398Z,6.53
2022-08-02T21:38:59.478Z,4.75
2022-08-02T21:41:38.583Z,2.95
2022-08-02T21:44:07.186Z,3.03
2022-08-02T21:46:33.829Z,4.72
2022-08-02T21:49:01.403Z,4.18
2022-08-02T21:51:28.202Z,5.30
2022-08-02T21:54:17.836Z,3.58
2022-08-02T21:56:42.505Z,4.93
2022-08-02T21:59:16.111Z,3.15
2022-08-02T22:01:52.304Z,3.55
2022-08-02T22:04:20.318Z,3.88
2022-08-02T22:06:48.845Z,3.38
2022-08-02T22:09:17.366Z,4.28
2022-08-02T22:11:44.729Z,5.43
2022-08-02T22:14:12.888Z,6.03
2022-08-02T22:16:39.537Z,3.85
2022-08-02T22:19:06.645Z,3.72
2022-08-02T22:21:54.688Z,3.95
2022-08-02T22:24:30.123Z,3.50
2022-08-02T22:26:57.669Z,4.22
2022-08-02T22:29:24.419Z,5.57
2022-08-02T22:31:52.154Z,6.97
2022-08-02T22:34:36.887Z,4.35
2022-08-02T22:37:08.608Z,5.38
2022-08-02T22:40:06.108Z,2.97
2022-08-02T22:42:36.611Z,6.57
2022-08-02T22:45:07.467Z,4.43
2022-08-02T22:47:38.936Z,4.03
2022-08-02T22:50:18.149Z,2.30
2022-08-02T22:52:46.832Z,2.80
2022-08-02T22:55:21.275Z,6.15
2022-08-02T22:57:56.824Z,6.53
2022-08-02T22:58:45.273Z,5.18
2022-08-02T23:00:24.509Z,4.07
2022-08-02T23:02:51.244Z,2.55
2022-08-02T23:05:18.763Z,3.92
2022-08-02T23:07:45.372Z,4.28
2022-08-02T23:10:11.984Z,2.88
2022-08-02T23:12:38.538Z,7.78
2022-08-02T23:15:05.399Z,2.83
2022-08-02T23:17:52.844Z,4.13
2022-08-02T23:20:19.902Z,5.57
2022-08-02T23:22:49.764Z,4.03
2022-08-02T23:25:16.524Z,3.28
2022-08-02T23:27:50.502Z,3.60
2022-08-02T23:30:17.981Z,3.30
2022-08-02T23:32:44.542Z,3.65
2022-08-02T23:35:16.600Z,3.53
2022-08-02T23:38:00.086Z,3.85
2022-08-02T23:40:40.154Z,4.80
2022-08-02T23:43:14.096Z,3.47
2022-08-02T23:45:46.027Z,3.30
2022-08-02T23:48:18.850Z,5.57
2022-08-02T23:50:45.523Z,5.80
2022-08-02T23:53:12.267Z,3.70
2022-08-02T23:55:38.887Z,3.22
2022-08-02T23:58:05.461Z,2.65
